Houston, Texas
Traffic Map
Current Weather Conditions
Houston, Texas
Few Clouds
Few Clouds
47°
Feels Like: 47°
Wind Chill: 47° Ceiling: Unl
Heat Index: 47° Visibility: 10mi
Dew Point: 39° Wind: 0mph
Humidity: 74% Direction: ° ()
Pressure: 30.19in Gusts: 0mph
Raw Report DataKIAH 080753Z 00000KT 10SM FEW250 08/04 A3019 RMK AO2 SLP223 T00830039
Traffic Incident Summary
Active as of:
Severity:
Category:
InformationThere was an issue retrieving the traffic information for this location. Please try a different location or try again shortly.
Advertisements
Track Severe Weather on mobile